createdAt,value
2023-01-18T00:01:47.334Z,10.52
2023-01-18T00:03:48.841Z,12.18
2023-01-18T00:05:50.306Z,10.48
2023-01-18T00:07:54.834Z,12.52
2023-01-18T00:09:56.732Z,11.25
2023-01-18T00:11:58.191Z,13.23
2023-01-18T00:13:59.743Z,11.38
2023-01-18T00:16:02.896Z,16.75
2023-01-18T00:18:05.027Z,14.18
2023-01-18T00:20:07.133Z,17.63
2023-01-18T00:22:08.615Z,12.93
2023-01-18T00:24:14.957Z,16.10
2023-01-18T00:26:16.842Z,11.00
2023-01-18T00:28:22.100Z,12.02
2023-01-18T00:30:27.069Z,14.63
2023-01-18T00:32:28.529Z,17.48
2023-01-18T00:34:30.027Z,11.38
2023-01-18T00:36:32.013Z,12.05
2023-01-18T00:38:33.653Z,13.10
2023-01-18T00:40:35.197Z,10.90
2023-01-18T00:42:55.348Z,15.05
2023-01-18T00:44:56.989Z,16.08
2023-01-18T00:46:58.455Z,11.50
2023-01-18T00:48:59.997Z,10.57
2023-01-18T00:51:01.730Z,13.05
2023-01-18T00:53:03.242Z,13.00
2023-01-18T00:55:05.827Z,10.43
2023-01-18T00:57:07.291Z,16.23
2023-01-18T00:59:08.744Z,13.20
2023-01-18T01:01:11.570Z,12.73
2023-01-18T01:03:14.750Z,12.43
2023-01-18T01:05:41.512Z,13.73
2023-01-18T01:07:42.964Z,14.15
2023-01-18T01:09:44.463Z,12.25
2023-01-18T01:12:06.258Z,14.10
2023-01-18T01:14:27.987Z,13.35
2023-01-18T01:16:47.991Z,15.50
2023-01-18T01:19:08.120Z,10.32
2023-01-18T01:21:27.916Z,13.77
2023-01-18T01:23:48.020Z,9.45
2023-01-18T01:26:08.054Z,14.98
2023-01-18T01:28:09.608Z,13.20
2023-01-18T01:30:11.368Z,13.32
2023-01-18T01:32:13.216Z,11.63
2023-01-18T01:34:14.763Z,12.20
2023-01-18T01:36:25.806Z,10.30
2023-01-18T01:38:28.341Z,14.15
2023-01-18T01:40:29.829Z,10.55
2023-01-18T01:42:31.290Z,10.82
2023-01-18T01:44:34.368Z,12.90
2023-01-18T01:46:48.609Z,11.63
2023-01-18T01:48:54.218Z,16.17
2023-01-18T01:50:55.774Z,11.90
2023-01-18T01:52:58.616Z,11.32
2023-01-18T01:55:05.698Z,13.68
2023-01-18T01:57:21.305Z,15.98
2023-01-18T01:59:24.066Z,18.10
2023-01-18T02:01:27.647Z,12.25
2023-01-18T02:03:31.234Z,12.75
2023-01-18T02:05:36.029Z,14.07
2023-01-18T02:07:37.672Z,12.40
2023-01-18T02:09:39.998Z,14.65
2023-01-18T02:11:42.503Z,17.48
2023-01-18T02:13:44.129Z,10.50
2023-01-18T02:15:57.797Z,15.70
2023-01-18T02:18:27.505Z,13.80
2023-01-18T02:20:31.968Z,12.73
2023-01-18T02:23:11.134Z,15.40
2023-01-18T02:25:30.914Z,12.90
2023-01-18T02:27:55.809Z,11.05
2023-01-18T02:30:28.254Z,14.15
2023-01-18T02:32:57.515Z,13.70
2023-01-18T02:35:10.977Z,17.05
2023-01-18T02:37:30.841Z,13.68
2023-01-18T02:39:54.575Z,12.68
2023-01-18T02:42:22.667Z,11.85
2023-01-18T02:44:49.154Z,16.17
2023-01-18T02:46:50.795Z,16.00
2023-01-18T02:48:52.360Z,14.60
2023-01-18T02:50:53.843Z,13.85
2023-01-18T02:52:55.511Z,14.07
2023-01-18T02:54:57.260Z,15.95
2023-01-18T02:57:01.422Z,20.98
2023-01-18T02:59:03.448Z,15.05
2023-01-18T03:01:10.754Z,20.15
2023-01-18T03:03:14.851Z,13.15
2023-01-18T03:05:17.695Z,13.27
2023-01-18T03:07:25.264Z,14.50
2023-01-18T03:09:27.745Z,14.00
2023-01-18T03:11:49.720Z,17.70
2023-01-18T03:14:15.636Z,15.10
2023-01-18T03:16:23.128Z,18.17
2023-01-18T03:19:00.287Z,17.45
2023-01-18T03:21:05.532Z,16.60
2023-01-18T03:23:37.801Z,14.73
2023-01-18T03:25:42.835Z,14.85
2023-01-18T03:28:06.463Z,16.95
2023-01-18T03:30:27.364Z,16.05
2023-01-18T03:32:47.708Z,16.38
2023-01-18T03:34:55.175Z,15.25
2023-01-18T03:37:00.270Z,13.73
2023-01-18T03:39:17.088Z,15.43
2023-01-18T03:41:21.259Z,15.80
2023-01-18T03:43:25.111Z,15.90
2023-01-18T03:45:37.581Z,18.80
2023-01-18T03:47:39.842Z,14.00
2023-01-18T03:49:41.609Z,15.88
2023-01-18T03:51:58.556Z,15.55
2023-01-18T03:54:17.907Z,14.68
2023-01-18T03:56:28.563Z,11.57
2023-01-18T03:58:36.224Z,12.65
2023-01-18T04:00:39.453Z,16.00
2023-01-18T04:02:44.189Z,15.98
2023-01-18T04:04:45.727Z,14.52
2023-01-18T04:06:47.342Z,15.35
2023-01-18T04:08:50.296Z,13.55
2023-01-18T04:10:51.795Z,13.35
2023-01-18T04:12:53.300Z,13.60
2023-01-18T04:14:54.883Z,10.82
2023-01-18T04:16:56.388Z,16.35
2023-01-18T04:18:57.841Z,16.52
2023-01-18T04:20:59.961Z,12.88
2023-01-18T04:23:01.543Z,16.05
2023-01-18T04:25:03.843Z,14.18
2023-01-18T04:27:05.344Z,12.60
2023-01-18T04:29:06.851Z,14.15
2023-01-18T04:31:09.008Z,17.70
2023-01-18T04:33:10.482Z,12.18
2023-01-18T04:35:13.054Z,11.90
2023-01-18T04:37:14.591Z,13.93
2023-01-18T04:39:16.552Z,18.80
2023-01-18T04:41:18.035Z,15.98
2023-01-18T04:43:19.538Z,16.23
2023-01-18T04:45:21.085Z,15.10
2023-01-18T04:47:22.793Z,16.80
2023-01-18T04:49:24.332Z,17.02
2023-01-18T04:51:27.303Z,11.90
2023-01-18T04:53:28.769Z,18.42
2023-01-18T04:55:30.253Z,14.23
2023-01-18T04:57:31.693Z,16.58
2023-01-18T04:59:33.153Z,14.63
2023-01-18T05:01:35.743Z,15.88
2023-01-18T05:03:38.383Z,17.60
2023-01-18T05:05:41.050Z,19.05
2023-01-18T05:07:42.513Z,15.43
2023-01-18T05:09:44.011Z,14.73
2023-01-18T05:11:45.483Z,17.02
2023-01-18T05:13:47.139Z,15.70
2023-01-18T05:15:48.600Z,14.23
2023-01-18T05:17:50.068Z,15.35
2023-01-18T05:19:51.613Z,18.70
2023-01-18T05:21:53.061Z,16.83
2023-01-18T05:23:54.829Z,14.23
2023-01-18T05:25:58.329Z,17.85
2023-01-18T05:28:00.248Z,16.92
2023-01-18T05:30:02.309Z,16.42
2023-01-18T05:32:04.033Z,14.20
2023-01-18T05:34:05.966Z,21.83
2023-01-18T05:36:08.092Z,16.17
2023-01-18T05:38:09.614Z,15.45
2023-01-18T05:40:12.615Z,18.55
2023-01-18T05:42:14.127Z,14.43
2023-01-18T05:44:15.851Z,17.77
2023-01-18T05:46:17.301Z,17.17
2023-01-18T05:48:20.301Z,17.15
2023-01-18T05:50:21.802Z,17.35
2023-01-18T05:54:24.080Z,16.85
2023-01-18T05:56:25.557Z,16.98
2023-01-18T05:58:27.850Z,17.60
2023-01-18T06:00:30.045Z,17.90
2023-01-18T06:02:44.876Z,19.08
2023-01-18T06:04:47.650Z,22.20
2023-01-18T06:06:49.132Z,18.58
2023-01-18T06:08:50.612Z,16.92
2023-01-18T06:10:56.296Z,17.83
2023-01-18T06:12:57.995Z,15.27
2023-01-18T06:15:00.543Z,22.00
2023-01-18T06:17:02.162Z,19.50
2023-01-18T06:19:03.643Z,14.57
2023-01-18T06:21:05.354Z,17.08
2023-01-18T06:23:06.793Z,16.20
2023-01-18T06:25:10.106Z,16.17
2023-01-18T06:27:11.548Z,16.08
2023-01-18T06:29:13.021Z,15.48
2023-01-18T06:31:14.572Z,21.65
2023-01-18T06:33:16.071Z,20.17
2023-01-18T06:35:17.707Z,16.58
2023-01-18T06:37:19.163Z,14.88
2023-01-18T06:39:20.849Z,18.95
2023-01-18T06:41:22.279Z,16.45
2023-01-18T06:43:24.198Z,15.90
2023-01-18T06:45:26.020Z,20.23
2023-01-18T06:47:27.565Z,17.90
2023-01-18T06:49:29.123Z,16.50
2023-01-18T06:51:31.000Z,15.27
2023-01-18T06:53:32.519Z,16.92
2023-01-18T06:55:34.659Z,18.77
2023-01-18T06:57:36.189Z,16.42
2023-01-18T06:59:37.655Z,17.02
2023-01-18T07:01:39.199Z,17.80
2023-01-18T07:03:40.704Z,16.58
2023-01-18T07:05:42.218Z,17.50
2023-01-18T07:07:43.760Z,15.80
2023-01-18T07:09:45.336Z,16.88
2023-01-18T07:11:46.877Z,15.73
2023-01-18T07:13:49.464Z,20.15
2023-01-18T07:15:58.003Z,20.92
2023-01-18T07:18:00.898Z,18.30
2023-01-18T07:20:02.395Z,17.42
2023-01-18T07:22:03.955Z,21.83
2023-01-18T07:24:06.280Z,19.58
2023-01-18T07:26:15.565Z,19.95
2023-01-18T07:28:17.226Z,19.13
2023-01-18T07:30:19.009Z,20.63
2023-01-18T07:32:20.494Z,19.67
2023-01-18T07:34:21.994Z,16.27
2023-01-18T07:36:23.495Z,23.17
2023-01-18T07:38:26.009Z,23.42
2023-01-18T07:40:27.489Z,21.67
2023-01-18T07:42:29.104Z,19.33
2023-01-18T07:44:30.576Z,23.08
2023-01-18T07:46:32.178Z,23.83
2023-01-18T07:48:33.943Z,20.92
2023-01-18T07:50:35.934Z,18.50
2023-01-18T07:52:37.474Z,25.05
2023-01-18T07:54:38.988Z,21.13
2023-01-18T07:56:40.458Z,24.55
2023-01-18T07:58:42.471Z,22.25
2023-01-18T08:00:44.148Z,23.92
2023-01-18T08:02:50.633Z,21.88
2023-01-18T08:04:52.206Z,25.50
2023-01-18T08:06:57.865Z,22.55
2023-01-18T08:08:59.676Z,22.00
2023-01-18T08:11:03.352Z,25.27
2023-01-18T08:13:06.140Z,20.83
2023-01-18T08:15:08.257Z,24.52
2023-01-18T08:17:09.697Z,18.73
2023-01-18T08:19:11.152Z,21.70
2023-01-18T08:21:13.580Z,19.10
2023-01-18T08:23:16.131Z,19.15
2023-01-18T08:25:17.585Z,26.00
2023-01-18T08:27:19.189Z,26.45
2023-01-18T08:29:20.848Z,24.50
2023-01-18T08:31:22.405Z,24.58
2023-01-18T08:33:23.927Z,22.80
2023-01-18T08:35:30.727Z,24.95
2023-01-18T08:37:32.783Z,22.88
2023-01-18T08:39:34.261Z,23.30
2023-01-18T08:41:36.798Z,19.55
2023-01-18T08:43:38.296Z,25.08
2023-01-18T08:45:39.811Z,22.77
2023-01-18T08:47:41.517Z,22.83
2023-01-18T08:49:43.009Z,24.30
2023-01-18T08:51:44.452Z,20.92
2023-01-18T08:53:51.437Z,27.15
2023-01-18T08:55:52.891Z,21.00
2023-01-18T08:57:56.777Z,21.55
2023-01-18T08:59:58.500Z,20.20
2023-01-18T09:01:59.997Z,21.75
2023-01-18T09:04:01.531Z,24.63
2023-01-18T09:06:05.556Z,24.98
2023-01-18T09:08:07.047Z,22.27
2023-01-18T09:10:09.137Z,26.98
2023-01-18T09:12:11.930Z,23.73
2023-01-18T09:14:13.485Z,19.90
2023-01-18T09:16:14.958Z,17.08
2023-01-18T09:18:16.492Z,21.52
2023-01-18T09:20:19.125Z,19.50
2023-01-18T09:22:21.905Z,27.02
2023-01-18T09:24:23.496Z,19.25
2023-01-18T09:26:25.382Z,22.52
2023-01-18T09:28:27.556Z,20.95
2023-01-18T09:30:29.740Z,17.40
2023-01-18T09:32:31.216Z,17.98
2023-01-18T09:34:32.669Z,19.70
2023-01-18T09:36:34.113Z,21.90
2023-01-18T09:38:37.142Z,22.55
2023-01-18T09:40:46.107Z,18.90
2023-01-18T09:42:51.326Z,18.85
2023-01-18T09:44:56.546Z,18.23
2023-01-18T09:47:12.170Z,20.85
2023-01-18T09:49:35.345Z,18.20
2023-01-18T09:51:48.610Z,18.85
2023-01-18T09:54:04.856Z,17.33
2023-01-18T09:56:16.921Z,18.13
2023-01-18T09:58:30.615Z,17.00
2023-01-18T10:00:37.129Z,17.95
2023-01-18T10:02:41.738Z,24.25
2023-01-18T10:04:48.366Z,16.77
2023-01-18T10:07:00.474Z,20.27
2023-01-18T10:09:15.673Z,16.52
2023-01-18T10:11:27.181Z,21.00
2023-01-18T10:13:39.036Z,19.15
2023-01-18T10:15:41.618Z,16.08
2023-01-18T10:17:45.318Z,19.95
2023-01-18T10:19:47.237Z,19.40
2023-01-18T10:21:59.039Z,18.00
2023-01-18T10:24:39.784Z,17.55
2023-01-18T10:26:41.618Z,16.42
2023-01-18T10:28:51.907Z,18.65
2023-01-18T10:31:05.743Z,17.10
2023-01-18T10:33:21.716Z,19.80
2023-01-18T10:35:33.880Z,17.02
2023-01-18T10:37:45.211Z,17.50
2023-01-18T10:40:00.220Z,19.60
2023-01-18T10:42:06.213Z,20.33
2023-01-18T10:44:09.348Z,18.35
2023-01-18T10:46:16.772Z,20.52
2023-01-18T10:48:18.204Z,24.23
2023-01-18T10:50:34.885Z,18.23
2023-01-18T10:52:36.453Z,19.55
2023-01-18T10:54:37.900Z,21.67
2023-01-18T10:56:39.988Z,19.75
2023-01-18T10:58:47.351Z,19.75
2023-01-18T11:00:54.267Z,16.50
2023-01-18T11:02:57.831Z,15.15
2023-01-18T11:05:29.314Z,17.67
2023-01-18T11:07:30.870Z,21.08
2023-01-18T11:10:01.665Z,22.77
2023-01-18T11:12:42.839Z,15.85
2023-01-18T11:14:44.526Z,18.00
2023-01-18T11:17:02.149Z,16.92
2023-01-18T11:19:17.756Z,14.45
2023-01-18T11:21:19.260Z,15.48
2023-01-18T11:23:25.528Z,13.07
2023-01-18T11:25:53.445Z,17.02
2023-01-18T11:28:02.201Z,14.82
2023-01-18T11:32:22.543Z,18.92
2023-01-18T11:34:31.563Z,13.80
2023-01-18T11:36:40.405Z,17.48
2023-01-18T11:40:46.320Z,12.93
2023-01-18T11:42:50.389Z,9.70
2023-01-18T11:45:29.796Z,9.60
2023-01-18T11:47:53.479Z,12.23
2023-01-18T11:50:21.630Z,9.82
2023-01-18T11:52:46.781Z,11.70
2023-01-18T11:54:55.881Z,11.65
2023-01-18T11:57:02.924Z,12.57
2023-01-18T11:59:13.009Z,13.73
2023-01-18T12:01:45.996Z,10.38
2023-01-18T12:03:51.954Z,10.73
2023-01-18T12:05:59.437Z,12.50
2023-01-18T12:08:38.702Z,14.00
2023-01-18T12:11:00.458Z,11.90
2023-01-18T12:13:16.916Z,11.57
2023-01-18T12:15:42.759Z,13.75
2023-01-18T12:17:56.445Z,12.02
2023-01-18T12:20:19.156Z,13.18
2023-01-18T12:22:49.618Z,9.47
2023-01-18T12:25:30.072Z,11.50
2023-01-18T12:28:10.046Z,15.60
2023-01-18T12:30:30.013Z,10.63
2023-01-18T12:32:34.306Z,9.63
2023-01-18T12:34:44.972Z,9.25
2023-01-18T12:37:11.379Z,13.80
2023-01-18T12:39:22.830Z,10.07
2023-01-18T12:41:24.256Z,14.82
2023-01-18T12:43:41.058Z,12.45
2023-01-18T12:45:56.909Z,10.35
2023-01-18T12:47:58.582Z,12.35
2023-01-18T12:50:23.183Z,9.80
2023-01-18T12:52:27.034Z,11.13
2023-01-18T12:54:48.920Z,11.23
2023-01-18T12:56:54.488Z,8.63
2023-01-18T12:59:15.776Z,8.65
2023-01-18T13:01:21.807Z,7.70
2023-01-18T13:03:29.104Z,9.77
2023-01-18T13:05:43.983Z,12.25
2023-01-18T13:07:50.760Z,10.43
2023-01-18T13:09:53.428Z,10.35
2023-01-18T13:11:58.433Z,6.68
2023-01-18T13:14:15.420Z,6.60
2023-01-18T13:16:22.706Z,12.55
2023-01-18T13:18:46.278Z,7.88
2023-01-18T13:21:16.723Z,7.57
2023-01-18T13:23:18.135Z,6.90
2023-01-18T13:25:35.376Z,11.05
2023-01-18T13:27:37.833Z,8.90
2023-01-18T13:29:40.342Z,6.80
2023-01-18T13:31:41.905Z,8.05
2023-01-18T13:33:45.576Z,12.23
2023-01-18T13:36:15.524Z,10.48
2023-01-18T13:38:27.529Z,11.65
2023-01-18T13:40:39.561Z,10.20
2023-01-18T13:42:41.088Z,9.63
2023-01-18T13:44:49.881Z,7.88
2023-01-18T13:49:35.406Z,7.80
2023-01-18T13:51:40.797Z,7.88
2023-01-18T13:53:50.094Z,9.18
2023-01-18T13:55:54.610Z,6.75
2023-01-18T13:57:56.262Z,7.38
2023-01-18T13:59:58.329Z,10.05
2023-01-18T14:02:33.969Z,7.15
2023-01-18T14:04:35.736Z,7.32
2023-01-18T14:06:43.571Z,9.27
2023-01-18T14:08:51.780Z,10.43
2023-01-18T14:10:58.736Z,7.75
2023-01-18T14:13:06.644Z,14.18
2023-01-18T14:15:24.696Z,9.20
2023-01-18T14:17:26.842Z,7.07
2023-01-18T14:19:30.572Z,9.18
2023-01-18T14:21:59.790Z,13.45
2023-01-18T14:24:28.802Z,8.50
2023-01-18T14:26:32.851Z,12.45
2023-01-18T14:28:37.709Z,8.90
2023-01-18T14:30:41.419Z,8.48
2023-01-18T14:32:55.541Z,9.65
2023-01-18T14:35:01.596Z,7.80
2023-01-18T14:37:03.803Z,10.95
2023-01-18T14:39:17.525Z,9.48
2023-01-18T14:41:19.134Z,10.23
2023-01-18T14:43:36.665Z,10.13
2023-01-18T14:45:40.774Z,11.77
2023-01-18T14:47:43.945Z,9.48
2023-01-18T14:49:46.785Z,12.95
2023-01-18T14:51:50.430Z,11.02
2023-01-18T14:53:58.105Z,11.35
2023-01-18T14:56:08.655Z,12.02
2023-01-18T14:58:17.820Z,12.35
2023-01-18T15:00:19.881Z,12.35
2023-01-18T15:02:25.700Z,11.48
2023-01-18T15:04:29.340Z,12.48
2023-01-18T15:06:37.376Z,12.00
2023-01-18T15:08:40.081Z,11.65
2023-01-18T15:10:43.502Z,12.65
2023-01-18T15:12:49.717Z,15.57
2023-01-18T15:14:51.414Z,10.45
2023-01-18T15:16:56.822Z,11.65
2023-01-18T15:18:59.062Z,9.25
2023-01-18T15:21:04.076Z,10.07
2023-01-18T15:23:06.040Z,10.93
2023-01-18T15:25:18.472Z,12.27
2023-01-18T15:27:20.584Z,11.80
2023-01-18T15:29:26.198Z,12.05
2023-01-18T15:31:28.559Z,12.35
2023-01-18T15:33:32.001Z,10.02
2023-01-18T15:35:33.605Z,11.00
2023-01-18T15:37:37.637Z,16.33
2023-01-18T15:39:49.402Z,10.38
2023-01-18T15:41:53.536Z,9.65
2023-01-18T15:43:55.090Z,10.68
2023-01-18T15:45:57.911Z,16.15
2023-01-18T15:48:14.663Z,12.00
2023-01-18T15:50:19.393Z,11.32
2023-01-18T15:52:43.756Z,13.00
2023-01-18T15:54:49.651Z,13.10
2023-01-18T15:56:51.406Z,13.02
2023-01-18T15:58:56.151Z,14.45
2023-01-18T16:00:58.888Z,11.15
2023-01-18T16:03:00.460Z,16.17
2023-01-18T16:05:28.481Z,11.35
2023-01-18T16:07:29.910Z,10.70
2023-01-18T16:09:32.458Z,13.02
2023-01-18T16:11:43.231Z,11.35
2023-01-18T16:13:45.565Z,10.38
2023-01-18T16:16:04.916Z,16.33
2023-01-18T16:18:06.884Z,15.20
2023-01-18T16:20:16.771Z,13.90
2023-01-18T16:22:24.161Z,11.70
2023-01-18T16:24:34.083Z,13.25
2023-01-18T16:26:35.703Z,12.32
2023-01-18T16:28:37.176Z,13.88
2023-01-18T16:30:40.017Z,10.57
2023-01-18T16:32:41.494Z,12.38
2023-01-18T16:34:42.999Z,15.00
2023-01-18T16:36:44.483Z,16.88
2023-01-18T16:38:46.160Z,12.65
2023-01-18T16:40:49.819Z,12.90
2023-01-18T16:43:01.474Z,14.38
2023-01-18T16:45:03.180Z,13.00
2023-01-18T16:47:04.766Z,14.18
2023-01-18T16:49:11.427Z,11.18
2023-01-18T16:51:17.039Z,11.27
2023-01-18T16:53:19.042Z,14.55
2023-01-18T16:55:20.502Z,11.82
2023-01-18T16:57:23.969Z,11.80
2023-01-18T16:59:25.415Z,13.23
2023-01-18T17:01:27.080Z,18.02
2023-01-18T17:03:28.568Z,12.10
2023-01-18T17:05:30.067Z,13.43
2023-01-18T17:07:31.499Z,14.38
2023-01-18T17:09:40.348Z,13.43
2023-01-18T17:11:49.981Z,12.50
2023-01-18T17:13:51.486Z,11.27
2023-01-18T17:15:53.430Z,16.00
2023-01-18T17:17:55.354Z,14.32
2023-01-18T17:19:56.917Z,14.95
2023-01-18T17:21:58.686Z,13.63
2023-01-18T17:24:00.151Z,12.15
2023-01-18T17:26:02.484Z,16.45
2023-01-18T17:28:04.607Z,13.45
2023-01-18T17:30:07.925Z,17.83
2023-01-18T17:32:13.042Z,19.15
2023-01-18T17:34:16.969Z,10.45
2023-01-18T17:36:18.448Z,16.90
2023-01-18T17:38:25.641Z,13.48
2023-01-18T17:42:43.436Z,16.15
2023-01-18T17:44:44.960Z,13.27
2023-01-18T17:46:46.426Z,14.68
2023-01-18T17:48:47.957Z,17.35
2023-01-18T17:50:49.483Z,19.75
2023-01-18T17:52:52.108Z,16.23
2023-01-18T17:54:53.629Z,16.48
2023-01-18T17:56:55.165Z,15.65
2023-01-18T17:58:56.640Z,16.98
2023-01-18T18:01:04.950Z,11.48
2023-01-18T18:03:06.950Z,11.82
2023-01-18T18:05:09.582Z,14.90
2023-01-18T18:07:11.017Z,19.40
2023-01-18T18:09:12.485Z,16.35
2023-01-18T18:11:14.060Z,15.23
2023-01-18T18:13:15.516Z,14.52
2023-01-18T18:15:17.087Z,15.52
2023-01-18T18:17:19.746Z,17.92
2023-01-18T18:19:21.336Z,16.33
2023-01-18T18:21:26.183Z,20.45
2023-01-18T18:23:29.044Z,13.77
2023-01-18T18:25:30.525Z,14.25
2023-01-18T18:27:44.817Z,12.27
2023-01-18T18:29:47.364Z,18.85
2023-01-18T18:31:48.909Z,15.05
2023-01-18T18:33:50.388Z,12.55
2023-01-18T18:35:52.845Z,18.13
2023-01-18T18:37:55.637Z,11.88
2023-01-18T18:39:57.184Z,19.08
2023-01-18T18:41:58.897Z,17.60
2023-01-18T18:44:00.529Z,13.52
2023-01-18T18:46:02.195Z,12.88
2023-01-18T18:48:04.277Z,14.15
2023-01-18T18:50:06.134Z,12.45
2023-01-18T18:52:07.819Z,12.85
2023-01-18T18:54:12.634Z,14.15
2023-01-18T18:56:14.098Z,15.95
2023-01-18T18:58:15.654Z,14.85
2023-01-18T19:00:17.611Z,16.05
2023-01-18T19:02:19.361Z,13.68
2023-01-18T19:04:20.907Z,15.00
2023-01-18T19:06:23.691Z,16.67
2023-01-18T19:08:25.240Z,17.52
2023-01-18T19:10:30.228Z,11.43
2023-01-18T19:12:32.078Z,11.75
2023-01-18T19:14:33.560Z,12.15
2023-01-18T19:16:36.767Z,17.10
2023-01-18T19:18:38.296Z,12.10
2023-01-18T19:20:39.844Z,19.50
2023-01-18T19:22:41.521Z,12.85
2023-01-18T19:24:43.063Z,13.88
2023-01-18T19:26:44.973Z,13.68
2023-01-18T19:28:47.238Z,10.75
2023-01-18T19:30:48.705Z,15.18
2023-01-18T19:32:51.497Z,10.40
2023-01-18T19:34:52.943Z,13.70
2023-01-18T19:36:54.415Z,14.57
2023-01-18T19:38:59.775Z,10.35
2023-01-18T19:41:04.313Z,14.18
2023-01-18T19:43:05.784Z,14.80
2023-01-18T19:45:11.505Z,11.43
2023-01-18T19:47:15.264Z,10.32
2023-01-18T19:49:20.037Z,10.00
2023-01-18T19:51:22.860Z,11.15
2023-01-18T19:53:24.626Z,11.55
2023-01-18T19:55:26.122Z,12.75
2023-01-18T19:57:28.174Z,12.93
2023-01-18T19:59:29.675Z,13.60
2023-01-18T20:01:36.897Z,13.05
2023-01-18T20:03:38.758Z,12.38
2023-01-18T20:05:44.765Z,11.13
2023-01-18T20:07:46.216Z,12.63
2023-01-18T20:09:47.702Z,13.23
2023-01-18T20:11:49.335Z,14.98
2023-01-18T20:13:51.377Z,10.45
2023-01-18T20:15:54.656Z,10.68
2023-01-18T20:17:56.105Z,12.90
2023-01-18T20:19:57.621Z,10.73
2023-01-18T20:21:59.084Z,14.15
2023-01-18T20:24:00.991Z,11.55
2023-01-18T20:26:03.319Z,9.77
2023-01-18T20:28:04.993Z,12.45
2023-01-18T20:30:07.154Z,9.95
2023-01-18T20:32:15.760Z,15.43
2023-01-18T20:34:18.353Z,13.60
2023-01-18T20:36:19.815Z,8.10
2023-01-18T20:38:21.281Z,15.52
2023-01-18T20:40:23.088Z,12.73
2023-01-18T20:42:24.543Z,12.02
2023-01-18T20:44:26.059Z,13.98
2023-01-18T20:46:27.679Z,12.45
2023-01-18T20:48:29.728Z,14.63
2023-01-18T20:50:31.295Z,9.10
2023-01-18T20:52:32.744Z,10.95
2023-01-18T20:54:37.706Z,12.20
2023-01-18T20:56:39.276Z,14.98
2023-01-18T20:58:40.848Z,12.68
2023-01-18T21:00:42.400Z,12.02
2023-01-18T21:02:43.942Z,11.15
2023-01-18T21:04:45.397Z,9.98
2023-01-18T21:06:47.903Z,12.88
2023-01-18T21:08:52.607Z,11.82
2023-01-18T21:10:54.104Z,14.98
2023-01-18T21:12:55.543Z,13.63
2023-01-18T21:14:56.993Z,11.48
2023-01-18T21:16:58.530Z,11.25
2023-01-18T21:19:00.143Z,9.68
2023-01-18T21:21:01.767Z,13.52
2023-01-18T21:23:03.306Z,12.68
2023-01-18T21:25:05.378Z,11.55
2023-01-18T21:27:06.965Z,15.98
2023-01-18T21:29:08.447Z,13.13
2023-01-18T21:31:10.231Z,10.57
2023-01-18T21:33:11.908Z,11.10
2023-01-18T21:35:14.002Z,10.85
2023-01-18T21:37:15.659Z,11.07
2023-01-18T21:39:25.046Z,14.48
2023-01-18T21:41:44.937Z,14.73
2023-01-18T21:44:05.124Z,13.23
2023-01-18T21:46:10.020Z,15.25
2023-01-18T21:48:11.514Z,9.68
2023-01-18T21:50:32.076Z,13.88
2023-01-18T21:52:52.550Z,13.02
2023-01-18T21:54:54.010Z,11.63
2023-01-18T21:56:55.489Z,13.93
2023-01-18T21:59:01.031Z,14.30
2023-01-18T22:01:14.028Z,10.88
2023-01-18T22:03:18.351Z,11.73
2023-01-18T22:05:20.209Z,11.10
2023-01-18T22:07:21.649Z,10.07
2023-01-18T22:09:23.594Z,10.25
2023-01-18T22:11:25.060Z,12.23
2023-01-18T22:13:26.621Z,11.38
2023-01-18T22:15:28.084Z,12.30
2023-01-18T22:17:29.799Z,11.65
2023-01-18T22:19:31.279Z,12.10
2023-01-18T22:21:32.912Z,13.75
2023-01-18T22:23:34.621Z,10.82
2023-01-18T22:25:36.185Z,14.73
2023-01-18T22:27:37.647Z,10.93
2023-01-18T22:29:39.157Z,9.13
2023-01-18T22:31:40.956Z,14.25
2023-01-18T22:33:43.925Z,10.93
2023-01-18T22:35:45.379Z,12.20
2023-01-18T22:37:46.853Z,14.52
2023-01-18T22:39:48.307Z,13.70
2023-01-18T22:41:49.767Z,12.98
2023-01-18T22:43:51.761Z,16.00
2023-01-18T22:45:56.618Z,14.05
2023-01-18T22:47:58.428Z,12.88
2023-01-18T22:50:00.084Z,13.52
2023-01-18T22:52:01.600Z,17.77
2023-01-18T22:54:03.201Z,17.23
2023-01-18T22:56:07.652Z,15.82
2023-01-18T22:58:09.123Z,10.55
2023-01-18T23:00:11.209Z,14.27
2023-01-18T23:02:12.681Z,13.45
2023-01-18T23:04:14.152Z,10.63
2023-01-18T23:06:16.273Z,14.88
2023-01-18T23:08:17.719Z,12.98
2023-01-18T23:10:19.231Z,10.07
2023-01-18T23:12:20.743Z,14.32
2023-01-18T23:14:40.945Z,14.00
2023-01-18T23:17:01.968Z,11.15
2023-01-18T23:19:03.525Z,11.73
2023-01-18T23:21:05.168Z,11.40
2023-01-18T23:23:06.675Z,12.75
2023-01-18T23:25:08.539Z,14.77
2023-01-18T23:27:10.244Z,12.88
2023-01-18T23:29:11.763Z,11.60
2023-01-18T23:31:16.485Z,12.23
2023-01-18T23:33:18.185Z,12.25
2023-01-18T23:35:19.691Z,11.02
2023-01-18T23:37:21.472Z,9.63
2023-01-18T23:39:41.642Z,11.30
2023-01-18T23:42:01.505Z,9.98
2023-01-18T23:44:22.044Z,11.57
2023-01-18T23:46:42.399Z,11.98
2023-01-18T23:49:02.371Z,10.23
2023-01-18T23:51:23.322Z,11.95
2023-01-18T23:53:46.390Z,15.00
2023-01-18T23:55:51.352Z,14.38
2023-01-18T23:57:52.807Z,13.45
2023-01-18T23:59:54.269Z,10.90
